sensor_id;sensor_type;location;lat;lon;timestamp;P1;durP1;ratioP1;P2;durP2;ratioP2
40290;SDS011;26000;48.304;13.626;2022-11-20T00:01:08;51.00;;;26.75;;
40290;SDS011;26000;48.304;13.626;2022-11-20T00:03:35;53.90;;;27.60;;
40290;SDS011;26000;48.304;13.626;2022-11-20T00:06:02;53.10;;;27.70;;
40290;SDS011;26000;48.304;13.626;2022-11-20T00:08:28;49.25;;;26.05;;
40290;SDS011;26000;48.304;13.626;2022-11-20T00:10:54;52.17;;;26.40;;
40290;SDS011;26000;48.304;13.626;2022-11-20T00:13:20;47.25;;;25.58;;
40290;SDS011;26000;48.304;13.626;2022-11-20T00:15:45;48.58;;;25.40;;
40290;SDS011;26000;48.304;13.626;2022-11-20T00:18:11;52.45;;;26.58;;
40290;SDS011;26000;48.304;13.626;2022-11-20T00:20:36;50.83;;;26.98;;
40290;SDS011;26000;48.304;13.626;2022-11-20T00:23:02;56.63;;;27.80;;
40290;SDS011;26000;48.304;13.626;2022-11-20T00:25:28;47.15;;;25.75;;
40290;SDS011;26000;48.304;13.626;2022-11-20T00:27:53;50.13;;;26.80;;
40290;SDS011;26000;48.304;13.626;2022-11-20T00:30:19;48.53;;;26.42;;
40290;SDS011;26000;48.304;13.626;2022-11-20T00:32:44;47.20;;;25.63;;
40290;SDS011;26000;48.304;13.626;2022-11-20T00:35:10;50.90;;;26.10;;
40290;SDS011;26000;48.304;13.626;2022-11-20T00:37:36;49.83;;;25.30;;
40290;SDS011;26000;48.304;13.626;2022-11-20T00:40:01;49.33;;;26.30;;
40290;SDS011;26000;48.304;13.626;2022-11-20T00:42:27;48.78;;;26.23;;
40290;SDS011;26000;48.304;13.626;2022-11-20T00:44:52;47.92;;;25.95;;
40290;SDS011;26000;48.304;13.626;2022-11-20T00:47:18;49.80;;;25.55;;
40290;SDS011;26000;48.304;13.626;2022-11-20T00:49:43;49.85;;;25.65;;
40290;SDS011;26000;48.304;13.626;2022-11-20T00:52:09;53.15;;;28.02;;
40290;SDS011;26000;48.304;13.626;2022-11-20T00:54:35;48.88;;;27.33;;
40290;SDS011;26000;48.304;13.626;2022-11-20T00:57:00;52.42;;;26.42;;
40290;SDS011;26000;48.304;13.626;2022-11-20T00:59:26;48.33;;;26.60;;
40290;SDS011;26000;48.304;13.626;2022-11-20T01:01:51;54.75;;;28.35;;
40290;SDS011;26000;48.304;13.626;2022-11-20T01:04:17;48.65;;;25.65;;
40290;SDS011;26000;48.304;13.626;2022-11-20T01:06:42;49.88;;;26.38;;
40290;SDS011;26000;48.304;13.626;2022-11-20T01:09:12;51.03;;;26.95;;
40290;SDS011;26000;48.304;13.626;2022-11-20T01:11:40;54.50;;;27.95;;
40290;SDS011;26000;48.304;13.626;2022-11-20T01:14:08;51.03;;;26.92;;
40290;SDS011;26000;48.304;13.626;2022-11-20T01:16:37;57.03;;;28.38;;
40290;SDS011;26000;48.304;13.626;2022-11-20T01:19:06;55.95;;;28.25;;
40290;SDS011;26000;48.304;13.626;2022-11-20T01:21:36;53.80;;;27.88;;
40290;SDS011;26000;48.304;13.626;2022-11-20T01:24:04;49.67;;;26.05;;
40290;SDS011;26000;48.304;13.626;2022-11-20T01:26:33;51.60;;;27.42;;
40290;SDS011;26000;48.304;13.626;2022-11-20T01:29:01;52.72;;;26.67;;
40290;SDS011;26000;48.304;13.626;2022-11-20T01:31:29;55.15;;;27.75;;
40290;SDS011;26000;48.304;13.626;2022-11-20T01:33:57;53.03;;;26.90;;
40290;SDS011;26000;48.304;13.626;2022-11-20T01:36:25;54.92;;;27.85;;
40290;SDS011;26000;48.304;13.626;2022-11-20T01:38:56;50.80;;;27.17;;
40290;SDS011;26000;48.304;13.626;2022-11-20T01:41:24;56.47;;;28.27;;
40290;SDS011;26000;48.304;13.626;2022-11-20T01:44:10;56.55;;;28.75;;
40290;SDS011;26000;48.304;13.626;2022-11-20T01:46:40;54.10;;;27.85;;
40290;SDS011;26000;48.304;13.626;2022-11-20T01:52:10;58.30;;;29.15;;
40290;SDS011;26000;48.304;13.626;2022-11-20T01:54:52;56.40;;;28.08;;
40290;SDS011;26000;48.304;13.626;2022-11-20T01:57:21;56.00;;;28.40;;
40290;SDS011;26000;48.304;13.626;2022-11-20T01:59:51;54.55;;;27.45;;
40290;SDS011;26000;48.304;13.626;2022-11-20T02:02:23;58.05;;;27.63;;
40290;SDS011;26000;48.304;13.626;2022-11-20T02:04:50;53.55;;;27.38;;
40290;SDS011;26000;48.304;13.626;2022-11-20T02:07:19;56.47;;;28.02;;
40290;SDS011;26000;48.304;13.626;2022-11-20T02:09:46;57.30;;;27.00;;
40290;SDS011;26000;48.304;13.626;2022-11-20T02:12:11;52.08;;;26.77;;
40290;SDS011;26000;48.304;13.626;2022-11-20T02:14:57;52.58;;;28.25;;
40290;SDS011;26000;48.304;13.626;2022-11-20T02:17:23;53.75;;;28.10;;
40290;SDS011;26000;48.304;13.626;2022-11-20T02:19:49;55.05;;;27.95;;
40290;SDS011;26000;48.304;13.626;2022-11-20T02:22:19;54.83;;;27.88;;
40290;SDS011;26000;48.304;13.626;2022-11-20T02:24:54;54.22;;;27.90;;
40290;SDS011;26000;48.304;13.626;2022-11-20T02:27:20;50.92;;;27.20;;
40290;SDS011;26000;48.304;13.626;2022-11-20T02:29:53;55.90;;;28.08;;
40290;SDS011;26000;48.304;13.626;2022-11-20T02:32:21;57.10;;;28.40;;
40290;SDS011;26000;48.304;13.626;2022-11-20T02:34:49;52.42;;;27.27;;
40290;SDS011;26000;48.304;13.626;2022-11-20T02:37:14;51.38;;;26.70;;
40290;SDS011;26000;48.304;13.626;2022-11-20T02:39:41;51.95;;;27.52;;
40290;SDS011;26000;48.304;13.626;2022-11-20T02:42:09;54.63;;;28.73;;
40290;SDS011;26000;48.304;13.626;2022-11-20T02:44:35;52.05;;;27.40;;
40290;SDS011;26000;48.304;13.626;2022-11-20T02:47:00;49.95;;;26.23;;
40290;SDS011;26000;48.304;13.626;2022-11-20T02:49:26;51.17;;;27.67;;
40290;SDS011;26000;48.304;13.626;2022-11-20T02:51:51;53.50;;;28.30;;
40290;SDS011;26000;48.304;13.626;2022-11-20T02:54:17;51.53;;;27.73;;
40290;SDS011;26000;48.304;13.626;2022-11-20T02:56:42;58.38;;;29.20;;
40290;SDS011;26000;48.304;13.626;2022-11-20T02:59:08;46.50;;;26.42;;
40290;SDS011;26000;48.304;13.626;2022-11-20T03:01:35;50.33;;;26.98;;
40290;SDS011;26000;48.304;13.626;2022-11-20T03:04:00;48.20;;;25.88;;
40290;SDS011;26000;48.304;13.626;2022-11-20T03:06:26;47.50;;;26.73;;
40290;SDS011;26000;48.304;13.626;2022-11-20T03:08:52;47.25;;;24.92;;
40290;SDS011;26000;48.304;13.626;2022-11-20T03:11:17;49.35;;;26.25;;
40290;SDS011;26000;48.304;13.626;2022-11-20T03:13:43;49.33;;;25.83;;
40290;SDS011;26000;48.304;13.626;2022-11-20T03:16:10;48.17;;;26.27;;
40290;SDS011;26000;48.304;13.626;2022-11-20T03:18:41;47.70;;;26.02;;
40290;SDS011;26000;48.304;13.626;2022-11-20T03:21:08;45.15;;;26.10;;
40290;SDS011;26000;48.304;13.626;2022-11-20T03:23:34;47.08;;;25.45;;
40290;SDS011;26000;48.304;13.626;2022-11-20T03:29:00;48.20;;;25.75;;
40290;SDS011;26000;48.304;13.626;2022-11-20T03:31:30;45.35;;;25.38;;
40290;SDS011;26000;48.304;13.626;2022-11-20T03:33:57;45.88;;;26.52;;
40290;SDS011;26000;48.304;13.626;2022-11-20T03:36:23;47.47;;;26.58;;
40290;SDS011;26000;48.304;13.626;2022-11-20T03:38:50;45.63;;;25.92;;
40290;SDS011;26000;48.304;13.626;2022-11-20T03:41:19;47.72;;;26.75;;
40290;SDS011;26000;48.304;13.626;2022-11-20T03:43:49;45.40;;;25.60;;
40290;SDS011;26000;48.304;13.626;2022-11-20T03:46:16;46.15;;;25.02;;
40290;SDS011;26000;48.304;13.626;2022-11-20T03:48:42;43.92;;;23.95;;
40290;SDS011;26000;48.304;13.626;2022-11-20T03:53:39;47.35;;;25.42;;
40290;SDS011;26000;48.304;13.626;2022-11-20T03:56:06;45.00;;;25.10;;
40290;SDS011;26000;48.304;13.626;2022-11-20T03:58:33;44.38;;;24.10;;
40290;SDS011;26000;48.304;13.626;2022-11-20T04:01:09;45.97;;;25.05;;
40290;SDS011;26000;48.304;13.626;2022-11-20T04:03:36;46.77;;;25.27;;
40290;SDS011;26000;48.304;13.626;2022-11-20T04:06:07;44.85;;;23.83;;
40290;SDS011;26000;48.304;13.626;2022-11-20T04:08:35;47.75;;;25.55;;
40290;SDS011;26000;48.304;13.626;2022-11-20T04:11:08;45.03;;;24.33;;
40290;SDS011;26000;48.304;13.626;2022-11-20T04:13:34;48.13;;;26.33;;
40290;SDS011;26000;48.304;13.626;2022-11-20T04:16:00;45.65;;;25.00;;
40290;SDS011;26000;48.304;13.626;2022-11-20T04:18:26;43.00;;;23.48;;
40290;SDS011;26000;48.304;13.626;2022-11-20T04:20:51;42.35;;;23.27;;
40290;SDS011;26000;48.304;13.626;2022-11-20T04:23:17;45.72;;;24.73;;
40290;SDS011;26000;48.304;13.626;2022-11-20T04:25:42;47.30;;;25.45;;
40290;SDS011;26000;48.304;13.626;2022-11-20T04:28:08;44.03;;;24.38;;
40290;SDS011;26000;48.304;13.626;2022-11-20T04:30:33;43.53;;;23.52;;
40290;SDS011;26000;48.304;13.626;2022-11-20T04:32:59;45.25;;;24.73;;
40290;SDS011;26000;48.304;13.626;2022-11-20T04:35:25;44.40;;;24.77;;
40290;SDS011;26000;48.304;13.626;2022-11-20T04:37:51;47.17;;;25.17;;
40290;SDS011;26000;48.304;13.626;2022-11-20T04:40:17;44.53;;;24.58;;
40290;SDS011;26000;48.304;13.626;2022-11-20T04:42:42;44.33;;;23.60;;
40290;SDS011;26000;48.304;13.626;2022-11-20T04:45:08;37.42;;;20.83;;
40290;SDS011;26000;48.304;13.626;2022-11-20T04:47:34;37.55;;;21.25;;
40290;SDS011;26000;48.304;13.626;2022-11-20T04:49:59;40.60;;;22.23;;
40290;SDS011;26000;48.304;13.626;2022-11-20T04:52:25;38.15;;;21.80;;
40290;SDS011;26000;48.304;13.626;2022-11-20T04:54:51;36.97;;;20.23;;
40290;SDS011;26000;48.304;13.626;2022-11-20T04:57:23;36.20;;;21.13;;
40290;SDS011;26000;48.304;13.626;2022-11-20T04:59:50;37.05;;;21.33;;
40290;SDS011;26000;48.304;13.626;2022-11-20T05:02:15;35.50;;;21.05;;
40290;SDS011;26000;48.304;13.626;2022-11-20T05:04:42;38.13;;;21.65;;
40290;SDS011;26000;48.304;13.626;2022-11-20T05:07:11;41.70;;;23.13;;
40290;SDS011;26000;48.304;13.626;2022-11-20T05:09:36;42.35;;;23.38;;
40290;SDS011;26000;48.304;13.626;2022-11-20T05:12:02;38.47;;;22.05;;
40290;SDS011;26000;48.304;13.626;2022-11-20T05:14:28;37.40;;;21.88;;
40290;SDS011;26000;48.304;13.626;2022-11-20T05:16:54;37.30;;;20.92;;
40290;SDS011;26000;48.304;13.626;2022-11-20T05:19:19;35.53;;;20.73;;
40290;SDS011;26000;48.304;13.626;2022-11-20T05:21:45;35.17;;;21.15;;
40290;SDS011;26000;48.304;13.626;2022-11-20T05:24:11;34.65;;;19.95;;
40290;SDS011;26000;48.304;13.626;2022-11-20T05:26:36;34.88;;;20.17;;
40290;SDS011;26000;48.304;13.626;2022-11-20T05:29:02;32.85;;;18.98;;
40290;SDS011;26000;48.304;13.626;2022-11-20T05:31:28;31.10;;;19.00;;
40290;SDS011;26000;48.304;13.626;2022-11-20T05:33:53;32.50;;;19.30;;
40290;SDS011;26000;48.304;13.626;2022-11-20T05:36:20;33.55;;;19.42;;
40290;SDS011;26000;48.304;13.626;2022-11-20T05:38:46;32.88;;;18.90;;
40290;SDS011;26000;48.304;13.626;2022-11-20T05:41:13;32.25;;;19.30;;
40290;SDS011;26000;48.304;13.626;2022-11-20T05:43:41;33.92;;;19.00;;
40290;SDS011;26000;48.304;13.626;2022-11-20T05:46:09;35.88;;;20.08;;
40290;SDS011;26000;48.304;13.626;2022-11-20T05:48:36;37.80;;;20.48;;
40290;SDS011;26000;48.304;13.626;2022-11-20T05:51:03;34.40;;;19.75;;
40290;SDS011;26000;48.304;13.626;2022-11-20T05:53:31;36.70;;;20.70;;
40290;SDS011;26000;48.304;13.626;2022-11-20T05:56:01;39.85;;;23.15;;
40290;SDS011;26000;48.304;13.626;2022-11-20T05:58:35;39.58;;;22.58;;
40290;SDS011;26000;48.304;13.626;2022-11-20T06:01:05;37.38;;;22.45;;
40290;SDS011;26000;48.304;13.626;2022-11-20T06:06:03;36.80;;;21.45;;
40290;SDS011;26000;48.304;13.626;2022-11-20T06:08:29;35.22;;;20.70;;
40290;SDS011;26000;48.304;13.626;2022-11-20T06:10:55;34.22;;;19.27;;
40290;SDS011;26000;48.304;13.626;2022-11-20T06:13:20;29.13;;;17.75;;
40290;SDS011;26000;48.304;13.626;2022-11-20T06:15:53;30.40;;;17.85;;
40290;SDS011;26000;48.304;13.626;2022-11-20T06:18:18;27.42;;;17.08;;
40290;SDS011;26000;48.304;13.626;2022-11-20T06:20:45;28.85;;;17.25;;
40290;SDS011;26000;48.304;13.626;2022-11-20T06:23:11;27.83;;;17.33;;
40290;SDS011;26000;48.304;13.626;2022-11-20T06:25:40;28.25;;;17.55;;
40290;SDS011;26000;48.304;13.626;2022-11-20T06:28:07;28.42;;;17.05;;
40290;SDS011;26000;48.304;13.626;2022-11-20T06:30:34;29.20;;;17.63;;
40290;SDS011;26000;48.304;13.626;2022-11-20T06:33:00;28.70;;;17.02;;
40290;SDS011;26000;48.304;13.626;2022-11-20T06:35:25;33.85;;;20.38;;
40290;SDS011;26000;48.304;13.626;2022-11-20T06:37:51;29.75;;;18.98;;
40290;SDS011;26000;48.304;13.626;2022-11-20T06:40:16;29.73;;;18.42;;
40290;SDS011;26000;48.304;13.626;2022-11-20T06:42:42;35.35;;;19.85;;
40290;SDS011;26000;48.304;13.626;2022-11-20T06:45:08;33.72;;;19.92;;
40290;SDS011;26000;48.304;13.626;2022-11-20T06:47:34;37.35;;;21.92;;
40290;SDS011;26000;48.304;13.626;2022-11-20T06:49:59;34.53;;;20.20;;
40290;SDS011;26000;48.304;13.626;2022-11-20T06:52:25;34.50;;;20.98;;
40290;SDS011;26000;48.304;13.626;2022-11-20T06:54:51;31.67;;;19.73;;
40290;SDS011;26000;48.304;13.626;2022-11-20T06:57:16;29.35;;;18.52;;
40290;SDS011;26000;48.304;13.626;2022-11-20T06:59:42;31.08;;;19.08;;
40290;SDS011;26000;48.304;13.626;2022-11-20T07:02:11;30.60;;;18.15;;
40290;SDS011;26000;48.304;13.626;2022-11-20T07:04:37;29.17;;;17.40;;
40290;SDS011;26000;48.304;13.626;2022-11-20T07:07:03;29.25;;;17.58;;
40290;SDS011;26000;48.304;13.626;2022-11-20T07:09:28;26.60;;;16.63;;
40290;SDS011;26000;48.304;13.626;2022-11-20T07:11:54;28.38;;;17.75;;
40290;SDS011;26000;48.304;13.626;2022-11-20T07:14:20;29.20;;;17.17;;
40290;SDS011;26000;48.304;13.626;2022-11-20T07:16:45;29.02;;;17.30;;
40290;SDS011;26000;48.304;13.626;2022-11-20T07:19:11;30.10;;;16.60;;
40290;SDS011;26000;48.304;13.626;2022-11-20T07:21:36;29.58;;;18.42;;
40290;SDS011;26000;48.304;13.626;2022-11-20T07:24:02;31.00;;;19.45;;
40290;SDS011;26000;48.304;13.626;2022-11-20T07:26:28;28.55;;;19.33;;
40290;SDS011;26000;48.304;13.626;2022-11-20T07:28:53;31.52;;;19.45;;
40290;SDS011;26000;48.304;13.626;2022-11-20T07:31:19;32.25;;;18.90;;
40290;SDS011;26000;48.304;13.626;2022-11-20T07:33:45;30.98;;;18.25;;
40290;SDS011;26000;48.304;13.626;2022-11-20T07:36:11;29.52;;;17.92;;
40290;SDS011;26000;48.304;13.626;2022-11-20T07:38:37;32.97;;;19.05;;
40290;SDS011;26000;48.304;13.626;2022-11-20T07:41:02;29.17;;;18.20;;
40290;SDS011;26000;48.304;13.626;2022-11-20T07:43:28;29.60;;;18.33;;
40290;SDS011;26000;48.304;13.626;2022-11-20T07:45:55;33.53;;;19.98;;
40290;SDS011;26000;48.304;13.626;2022-11-20T07:48:21;29.73;;;18.88;;
40290;SDS011;26000;48.304;13.626;2022-11-20T07:50:47;28.98;;;19.10;;
40290;SDS011;26000;48.304;13.626;2022-11-20T07:53:13;32.60;;;20.42;;
40290;SDS011;26000;48.304;13.626;2022-11-20T07:55:38;32.92;;;20.70;;
40290;SDS011;26000;48.304;13.626;2022-11-20T07:58:04;36.95;;;22.83;;
40290;SDS011;26000;48.304;13.626;2022-11-20T08:00:30;34.88;;;22.58;;
40290;SDS011;26000;48.304;13.626;2022-11-20T08:02:56;38.42;;;24.58;;
40290;SDS011;26000;48.304;13.626;2022-11-20T08:05:21;37.38;;;23.35;;
40290;SDS011;26000;48.304;13.626;2022-11-20T08:07:47;37.63;;;24.50;;
40290;SDS011;26000;48.304;13.626;2022-11-20T08:10:13;41.28;;;25.95;;
40290;SDS011;26000;48.304;13.626;2022-11-20T08:12:44;36.78;;;21.85;;
40290;SDS011;26000;48.304;13.626;2022-11-20T08:15:33;38.72;;;21.85;;
40290;SDS011;26000;48.304;13.626;2022-11-20T08:18:00;38.08;;;22.05;;
40290;SDS011;26000;48.304;13.626;2022-11-20T08:20:27;38.22;;;22.98;;
40290;SDS011;26000;48.304;13.626;2022-11-20T08:22:57;37.40;;;24.83;;
40290;SDS011;26000;48.304;13.626;2022-11-20T08:25:24;44.05;;;28.48;;
40290;SDS011;26000;48.304;13.626;2022-11-20T08:27:50;37.58;;;23.65;;
40290;SDS011;26000;48.304;13.626;2022-11-20T08:30:16;48.17;;;30.10;;
40290;SDS011;26000;48.304;13.626;2022-11-20T08:32:41;52.13;;;31.10;;
40290;SDS011;26000;48.304;13.626;2022-11-20T08:35:07;52.03;;;30.45;;
40290;SDS011;26000;48.304;13.626;2022-11-20T08:37:33;49.60;;;29.67;;
40290;SDS011;26000;48.304;13.626;2022-11-20T08:39:59;43.17;;;28.05;;
40290;SDS011;26000;48.304;13.626;2022-11-20T08:42:24;46.10;;;28.65;;
40290;SDS011;26000;48.304;13.626;2022-11-20T08:44:50;41.03;;;26.35;;
40290;SDS011;26000;48.304;13.626;2022-11-20T08:47:15;41.08;;;26.42;;
40290;SDS011;26000;48.304;13.626;2022-11-20T08:49:41;41.67;;;27.33;;
40290;SDS011;26000;48.304;13.626;2022-11-20T08:52:07;40.20;;;25.92;;
40290;SDS011;26000;48.304;13.626;2022-11-20T08:54:32;39.13;;;23.85;;
40290;SDS011;26000;48.304;13.626;2022-11-20T08:56:58;33.60;;;21.08;;
40290;SDS011;26000;48.304;13.626;2022-11-20T08:59:23;34.70;;;20.52;;
40290;SDS011;26000;48.304;13.626;2022-11-20T09:01:49;31.10;;;19.70;;
40290;SDS011;26000;48.304;13.626;2022-11-20T09:04:15;27.77;;;16.27;;
40290;SDS011;26000;48.304;13.626;2022-11-20T09:06:40;24.48;;;15.55;;
40290;SDS011;26000;48.304;13.626;2022-11-20T09:09:06;17.13;;;11.70;;
40290;SDS011;26000;48.304;13.626;2022-11-20T09:11:32;8.25;;;6.55;;
40290;SDS011;26000;48.304;13.626;2022-11-20T09:13:57;8.65;;;6.45;;
40290;SDS011;26000;48.304;13.626;2022-11-20T09:16:23;9.85;;;6.18;;
40290;SDS011;26000;48.304;13.626;2022-11-20T09:18:49;8.27;;;5.80;;
40290;SDS011;26000;48.304;13.626;2022-11-20T09:21:15;10.27;;;7.32;;
40290;SDS011;26000;48.304;13.626;2022-11-20T09:23:41;8.73;;;6.10;;
40290;SDS011;26000;48.304;13.626;2022-11-20T09:26:09;8.75;;;6.03;;
40290;SDS011;26000;48.304;13.626;2022-11-20T09:28:38;8.68;;;5.70;;
40290;SDS011;26000;48.304;13.626;2022-11-20T09:31:08;8.82;;;6.30;;
40290;SDS011;26000;48.304;13.626;2022-11-20T09:33:39;7.75;;;5.88;;
40290;SDS011;26000;48.304;13.626;2022-11-20T09:36:04;9.07;;;5.82;;
40290;SDS011;26000;48.304;13.626;2022-11-20T09:38:30;7.18;;;5.63;;
40290;SDS011;26000;48.304;13.626;2022-11-20T09:41:05;10.20;;;6.43;;
40290;SDS011;26000;48.304;13.626;2022-11-20T09:48:42;8.77;;;6.22;;
40290;SDS011;26000;48.304;13.626;2022-11-20T09:51:31;10.52;;;7.05;;
40290;SDS011;26000;48.304;13.626;2022-11-20T09:56:44;8.68;;;6.50;;
40290;SDS011;26000;48.304;13.626;2022-11-20T10:01:49;5.88;;;4.80;;
40290;SDS011;26000;48.304;13.626;2022-11-20T10:04:19;6.93;;;4.85;;
40290;SDS011;26000;48.304;13.626;2022-11-20T10:06:56;5.32;;;4.55;;
40290;SDS011;26000;48.304;13.626;2022-11-20T10:09:27;8.27;;;4.70;;
40290;SDS011;26000;48.304;13.626;2022-11-20T10:20:01;9.15;;;7.50;;
40290;SDS011;26000;48.304;13.626;2022-11-20T10:30:43;4.47;;;3.50;;
40290;SDS011;26000;48.304;13.626;2022-11-20T10:33:17;4.07;;;3.35;;
40290;SDS011;26000;48.304;13.626;2022-11-20T10:35:55;5.28;;;3.95;;
40290;SDS011;26000;48.304;13.626;2022-11-20T10:38:28;5.82;;;4.72;;
40290;SDS011;26000;48.304;13.626;2022-11-20T10:41:02;6.25;;;4.18;;
40290;SDS011;26000;48.304;13.626;2022-11-20T10:43:49;4.75;;;3.72;;
40290;SDS011;26000;48.304;13.626;2022-11-20T10:46:21;5.40;;;4.00;;
40290;SDS011;26000;48.304;13.626;2022-11-20T10:48:48;12.55;;;6.07;;
40290;SDS011;26000;48.304;13.626;2022-11-20T10:56:53;8.57;;;5.82;;
40290;SDS011;26000;48.304;13.626;2022-11-20T10:59:38;8.88;;;6.13;;
40290;SDS011;26000;48.304;13.626;2022-11-20T11:02:17;9.45;;;5.57;;
40290;SDS011;26000;48.304;13.626;2022-11-20T11:04:52;5.50;;;3.92;;
40290;SDS011;26000;48.304;13.626;2022-11-20T11:09:59;7.93;;;4.50;;
40290;SDS011;26000;48.304;13.626;2022-11-20T11:12:26;5.85;;;3.95;;
40290;SDS011;26000;48.304;13.626;2022-11-20T11:14:54;6.15;;;4.13;;
40290;SDS011;26000;48.304;13.626;2022-11-20T11:17:25;4.82;;;3.40;;
40290;SDS011;26000;48.304;13.626;2022-11-20T11:20:18;4.20;;;3.60;;
40290;SDS011;26000;48.304;13.626;2022-11-20T11:22:56;4.28;;;3.40;;
40290;SDS011;26000;48.304;13.626;2022-11-20T11:25:30;4.20;;;3.53;;
40290;SDS011;26000;48.304;13.626;2022-11-20T11:28:04;8.40;;;4.82;;
40290;SDS011;26000;48.304;13.626;2022-11-20T11:30:44;4.75;;;3.30;;
40290;SDS011;26000;48.304;13.626;2022-11-20T11:33:11;6.32;;;4.22;;
40290;SDS011;26000;48.304;13.626;2022-11-20T11:35:45;6.47;;;3.88;;
40290;SDS011;26000;48.304;13.626;2022-11-20T11:38:21;6.32;;;3.83;;
40290;SDS011;26000;48.304;13.626;2022-11-20T11:40:53;6.45;;;3.20;;
40290;SDS011;26000;48.304;13.626;2022-11-20T11:43:21;6.50;;;4.32;;
40290;SDS011;26000;48.304;13.626;2022-11-20T11:46:27;22.25;;;11.82;;
40290;SDS011;26000;48.304;13.626;2022-11-20T11:51:39;11.73;;;5.35;;
40290;SDS011;26000;48.304;13.626;2022-11-20T11:57:22;5.40;;;3.72;;
40290;SDS011;26000;48.304;13.626;2022-11-20T12:00:12;5.03;;;3.42;;
40290;SDS011;26000;48.304;13.626;2022-11-20T12:05:18;5.72;;;3.72;;
40290;SDS011;26000;48.304;13.626;2022-11-20T12:10:44;6.13;;;3.95;;
40290;SDS011;26000;48.304;13.626;2022-11-20T12:15:39;12.40;;;8.70;;
40290;SDS011;26000;48.304;13.626;2022-11-20T12:18:13;6.10;;;4.10;;
40290;SDS011;26000;48.304;13.626;2022-11-20T12:20:44;3.60;;;3.30;;
40290;SDS011;26000;48.304;13.626;2022-11-20T12:24:02;4.07;;;3.20;;
40290;SDS011;26000;48.304;13.626;2022-11-20T12:26:07;9.75;;;4.57;;
40290;SDS011;26000;48.304;13.626;2022-11-20T12:28:44;6.10;;;3.50;;
40290;SDS011;26000;48.304;13.626;2022-11-20T12:31:47;5.47;;;3.60;;
40290;SDS011;26000;48.304;13.626;2022-11-20T12:43:11;3.97;;;2.83;;
40290;SDS011;26000;48.304;13.626;2022-11-20T12:46:10;5.05;;;3.42;;
40290;SDS011;26000;48.304;13.626;2022-11-20T12:56:56;3.63;;;2.70;;
40290;SDS011;26000;48.304;13.626;2022-11-20T13:07:54;3.33;;;2.10;;
40290;SDS011;26000;48.304;13.626;2022-11-20T13:10:43;2.63;;;2.10;;
40290;SDS011;26000;48.304;13.626;2022-11-20T13:13:16;2.33;;;2.03;;
40290;SDS011;26000;48.304;13.626;2022-11-20T13:16:05;4.00;;;2.42;;
40290;SDS011;26000;48.304;13.626;2022-11-20T13:18:38;3.20;;;2.35;;
40290;SDS011;26000;48.304;13.626;2022-11-20T13:21:41;5.00;;;2.10;;
40290;SDS011;26000;48.304;13.626;2022-11-20T13:24:05;2.45;;;2.10;;
40290;SDS011;26000;48.304;13.626;2022-11-20T13:26:31;2.10;;;1.90;;
40290;SDS011;26000;48.304;13.626;2022-11-20T13:29:16;2.00;;;1.80;;
40290;SDS011;26000;48.304;13.626;2022-11-20T13:31:44;2.67;;;2.05;;
40290;SDS011;26000;48.304;13.626;2022-11-20T13:34:25;2.95;;;1.90;;
40290;SDS011;26000;48.304;13.626;2022-11-20T13:36:53;2.55;;;1.73;;
40290;SDS011;26000;48.304;13.626;2022-11-20T13:39:24;3.47;;;2.40;;
40290;SDS011;26000;48.304;13.626;2022-11-20T13:41:58;2.55;;;1.90;;
40290;SDS011;26000;48.304;13.626;2022-11-20T13:44:46;2.47;;;2.00;;
40290;SDS011;26000;48.304;13.626;2022-11-20T13:47:26;5.82;;;2.95;;
40290;SDS011;26000;48.304;13.626;2022-11-20T13:49:53;6.55;;;3.95;;
40290;SDS011;26000;48.304;13.626;2022-11-20T14:01:10;2.45;;;2.03;;
40290;SDS011;26000;48.304;13.626;2022-11-20T14:03:44;2.25;;;1.90;;
40290;SDS011;26000;48.304;13.626;2022-11-20T14:06:21;4.03;;;2.10;;
40290;SDS011;26000;48.304;13.626;2022-11-20T14:08:56;2.13;;;1.70;;
40290;SDS011;26000;48.304;13.626;2022-11-20T14:11:23;2.22;;;1.88;;
40290;SDS011;26000;48.304;13.626;2022-11-20T14:13:57;2.97;;;1.83;;
40290;SDS011;26000;48.304;13.626;2022-11-20T14:16:38;3.05;;;1.88;;
40290;SDS011;26000;48.304;13.626;2022-11-20T14:21:46;2.58;;;2.10;;
40290;SDS011;26000;48.304;13.626;2022-11-20T14:24:23;3.63;;;2.42;;
40290;SDS011;26000;48.304;13.626;2022-11-20T14:26:49;2.75;;;2.00;;
40290;SDS011;26000;48.304;13.626;2022-11-20T14:29:17;4.45;;;2.63;;
40290;SDS011;26000;48.304;13.626;2022-11-20T14:31:50;3.17;;;2.47;;
40290;SDS011;26000;48.304;13.626;2022-11-20T14:34:22;3.85;;;2.47;;
40290;SDS011;26000;48.304;13.626;2022-11-20T14:36:58;3.08;;;2.50;;
40290;SDS011;26000;48.304;13.626;2022-11-20T14:39:27;4.32;;;2.83;;
40290;SDS011;26000;48.304;13.626;2022-11-20T14:41:54;3.63;;;2.45;;
40290;SDS011;26000;48.304;13.626;2022-11-20T14:44:21;3.70;;;2.30;;
40290;SDS011;26000;48.304;13.626;2022-11-20T14:46:51;5.57;;;2.13;;
40290;SDS011;26000;48.304;13.626;2022-11-20T14:49:17;4.68;;;2.92;;
40290;SDS011;26000;48.304;13.626;2022-11-20T14:51:43;4.32;;;2.60;;
40290;SDS011;26000;48.304;13.626;2022-11-20T14:54:20;3.03;;;2.30;;
40290;SDS011;26000;48.304;13.626;2022-11-20T14:56:57;2.88;;;2.28;;
40290;SDS011;26000;48.304;13.626;2022-11-20T14:59:26;5.32;;;3.58;;
40290;SDS011;26000;48.304;13.626;2022-11-20T15:02:01;4.65;;;2.67;;
40290;SDS011;26000;48.304;13.626;2022-11-20T15:04:30;5.45;;;3.25;;
40290;SDS011;26000;48.304;13.626;2022-11-20T15:06:56;4.20;;;2.75;;
40290;SDS011;26000;48.304;13.626;2022-11-20T15:09:23;5.90;;;2.60;;
40290;SDS011;26000;48.304;13.626;2022-11-20T15:11:53;5.38;;;3.40;;
40290;SDS011;26000;48.304;13.626;2022-11-20T15:14:21;6.47;;;2.67;;
40290;SDS011;26000;48.304;13.626;2022-11-20T15:16:47;3.58;;;2.47;;
40290;SDS011;26000;48.304;13.626;2022-11-20T15:19:16;3.90;;;2.58;;
40290;SDS011;26000;48.304;13.626;2022-11-20T15:21:44;5.00;;;2.40;;
40290;SDS011;26000;48.304;13.626;2022-11-20T15:24:09;3.40;;;1.60;;
40290;SDS011;26000;48.304;13.626;2022-11-20T15:26:35;1.63;;;1.50;;
40290;SDS011;26000;48.304;13.626;2022-11-20T15:29:02;2.45;;;1.73;;
40290;SDS011;26000;48.304;13.626;2022-11-20T15:31:29;2.80;;;2.30;;
40290;SDS011;26000;48.304;13.626;2022-11-20T15:33:54;3.35;;;2.42;;
40290;SDS011;26000;48.304;13.626;2022-11-20T15:36:20;3.70;;;2.65;;
40290;SDS011;26000;48.304;13.626;2022-11-20T15:38:45;4.47;;;2.65;;
40290;SDS011;26000;48.304;13.626;2022-11-20T15:41:11;3.47;;;2.60;;
40290;SDS011;26000;48.304;13.626;2022-11-20T15:43:37;4.18;;;2.30;;
40290;SDS011;26000;48.304;13.626;2022-11-20T15:46:04;3.35;;;2.60;;
40290;SDS011;26000;48.304;13.626;2022-11-20T15:48:47;11.95;;;6.75;;
40290;SDS011;26000;48.304;13.626;2022-11-20T15:51:25;6.80;;;4.97;;
40290;SDS011;26000;48.304;13.626;2022-11-20T15:53:54;4.43;;;2.90;;
40290;SDS011;26000;48.304;13.626;2022-11-20T15:56:20;4.40;;;2.88;;
40290;SDS011;26000;48.304;13.626;2022-11-20T15:58:45;4.18;;;2.90;;
40290;SDS011;26000;48.304;13.626;2022-11-20T16:01:16;3.10;;;2.58;;
40290;SDS011;26000;48.304;13.626;2022-11-20T16:03:44;3.17;;;2.30;;
40290;SDS011;26000;48.304;13.626;2022-11-20T16:06:10;3.33;;;2.75;;